sensor_id;sensor_type;location;lat;lon;timestamp;pressure;altitude;pressure_sealevel;temperature;humidity
12951;BME280;6540;50.858;7.232;2022-12-18T00:00:05;51937.25;;;-142.34;27.96
12951;BME280;6540;50.858;7.232;2022-12-18T00:02:30;51890.84;;;-142.34;27.58
12951;BME280;6540;50.858;7.232;2022-12-18T00:04:56;51929.19;;;-142.34;27.45
12951;BME280;6540;50.858;7.232;2022-12-18T00:07:24;51864.63;;;-142.34;28.10
12951;BME280;6540;50.858;7.232;2022-12-18T00:09:49;51921.13;;;-142.34;28.33
12951;BME280;6540;50.858;7.232;2022-12-18T00:12:15;51907.00;;;-142.34;27.75
12951;BME280;6540;50.858;7.232;2022-12-18T00:14:40;51894.88;;;-142.34;27.80
12951;BME280;6540;50.858;7.232;2022-12-18T00:17:08;51931.19;;;-142.34;27.05
12951;BME280;6540;50.858;7.232;2022-12-18T00:19:34;51955.41;;;-142.34;26.83
12951;BME280;6540;50.858;7.232;2022-12-18T00:21:59;51941.28;;;-142.34;27.61
12951;BME280;6540;50.858;7.232;2022-12-18T00:24:24;51919.09;;;-142.34;28.80
12951;BME280;6540;50.858;7.232;2022-12-18T00:26:50;51900.94;;;-142.34;28.29
12951;BME280;6540;50.858;7.232;2022-12-18T00:29:15;51902.97;;;-142.34;27.46
12951;BME280;6540;50.858;7.232;2022-12-18T00:31:41;51937.25;;;-142.34;27.54
12951;BME280;6540;50.858;7.232;2022-12-18T00:34:10;51919.09;;;-142.34;27.42
12951;BME280;6540;50.858;7.232;2022-12-18T00:36:35;51904.97;;;-142.34;27.27
12951;BME280;6540;50.858;7.232;2022-12-18T00:39:03;51913.03;;;-142.34;27.52
12951;BME280;6540;50.858;7.232;2022-12-18T00:41:29;51902.97;;;-142.34;28.61
12951;BME280;6540;50.858;7.232;2022-12-18T00:44:15;51915.06;;;-142.34;28.04
12951;BME280;6540;50.858;7.232;2022-12-18T00:46:42;51898.94;;;-142.34;27.68
12951;BME280;6540;50.858;7.232;2022-12-18T00:49:09;51915.06;;;-142.34;26.32
12951;BME280;6540;50.858;7.232;2022-12-18T00:51:34;51929.19;;;-142.34;26.24
12951;BME280;6540;50.858;7.232;2022-12-18T00:54:02;51884.81;;;-142.34;26.22
12951;BME280;6540;50.858;7.232;2022-12-18T00:56:27;51965.50;;;-142.34;27.18
12951;BME280;6540;50.858;7.232;2022-12-18T00:58:53;51947.34;;;-142.34;26.92
12951;BME280;6540;50.858;7.232;2022-12-18T01:01:18;51909.00;;;-142.34;26.44
12951;BME280;6540;50.858;7.232;2022-12-18T01:03:44;51923.13;;;-142.34;26.21
12951;BME280;6540;50.858;7.232;2022-12-18T01:06:12;51945.31;;;-142.34;25.73
12951;BME280;6540;50.858;7.232;2022-12-18T01:08:38;51913.03;;;-142.34;26.99
12951;BME280;6540;50.858;7.232;2022-12-18T01:11:08;51911.03;;;-142.34;26.66
12951;BME280;6540;50.858;7.232;2022-12-18T01:13:34;51919.09;;;-142.34;26.95
12951;BME280;6540;50.858;7.232;2022-12-18T01:16:00;51943.31;;;-142.34;26.74
12951;BME280;6540;50.858;7.232;2022-12-18T01:18:25;51943.31;;;-142.34;27.11
12951;BME280;6540;50.858;7.232;2022-12-18T01:20:51;51923.13;;;-142.34;27.73
12951;BME280;6540;50.858;7.232;2022-12-18T01:23:16;51933.22;;;-142.34;26.52
12951;BME280;6540;50.858;7.232;2022-12-18T01:25:41;51951.38;;;-142.34;26.01
12951;BME280;6540;50.858;7.232;2022-12-18T01:28:07;51939.28;;;-142.34;25.73
12951;BME280;6540;50.858;7.232;2022-12-18T01:30:32;51919.09;;;-142.34;26.06
12951;BME280;6540;50.858;7.232;2022-12-18T01:32:57;51939.28;;;-142.34;25.98
12951;BME280;6540;50.858;7.232;2022-12-18T01:35:23;51947.34;;;-142.34;26.39
12951;BME280;6540;50.858;7.232;2022-12-18T01:37:48;51911.03;;;-142.34;27.15
12951;BME280;6540;50.858;7.232;2022-12-18T01:40:13;51917.06;;;-142.34;27.05
12951;BME280;6540;50.858;7.232;2022-12-18T01:42:39;51902.97;;;-142.34;26.65
12951;BME280;6540;50.858;7.232;2022-12-18T01:47:40;51900.94;;;-142.34;25.82
12951;BME280;6540;50.858;7.232;2022-12-18T01:52:49;51925.16;;;-142.34;27.08
12951;BME280;6540;50.858;7.232;2022-12-18T01:55:17;51902.97;;;-142.34;27.55
12951;BME280;6540;50.858;7.232;2022-12-18T01:57:43;51898.94;;;-142.34;27.33
12951;BME280;6540;50.858;7.232;2022-12-18T02:00:15;51999.78;;;-142.34;27.07
12951;BME280;6540;50.858;7.232;2022-12-18T02:02:43;51909.00;;;-142.34;27.34
12951;BME280;6540;50.858;7.232;2022-12-18T02:05:10;51919.09;;;-142.34;26.88
12951;BME280;6540;50.858;7.232;2022-12-18T02:11:11;51961.47;;;-142.34;25.82
12951;BME280;6540;50.858;7.232;2022-12-18T02:13:36;51923.13;;;-142.34;26.22
12951;BME280;6540;50.858;7.232;2022-12-18T02:16:47;51937.25;;;-142.34;26.22
12951;BME280;6540;50.858;7.232;2022-12-18T02:27:10;51947.34;;;-142.34;27.42
12951;BME280;6540;50.858;7.232;2022-12-18T02:29:50;51923.13;;;-142.34;26.91
12951;BME280;6540;50.858;7.232;2022-12-18T02:32:26;51943.31;;;-142.34;27.18
12951;BME280;6540;50.858;7.232;2022-12-18T02:34:52;51909.00;;;-142.34;27.28
12951;BME280;6540;50.858;7.232;2022-12-18T02:37:20;51923.13;;;-142.34;26.61
12951;BME280;6540;50.858;7.232;2022-12-18T02:39:48;51923.13;;;-142.34;26.42
12951;BME280;6540;50.858;7.232;2022-12-18T02:42:14;51949.34;;;-142.34;26.05
12951;BME280;6540;50.858;7.232;2022-12-18T02:44:50;51915.06;;;-142.34;26.21
12951;BME280;6540;50.858;7.232;2022-12-18T02:47:18;51945.31;;;-142.34;25.97
12951;BME280;6540;50.858;7.232;2022-12-18T02:57:56;51955.41;;;-142.34;26.66
12951;BME280;6540;50.858;7.232;2022-12-18T03:00:37;51919.09;;;-142.34;27.50
12951;BME280;6540;50.858;7.232;2022-12-18T03:03:16;51911.03;;;-142.34;27.22
12951;BME280;6540;50.858;7.232;2022-12-18T03:08:50;51915.06;;;-142.34;27.60
12951;BME280;6540;50.858;7.232;2022-12-18T03:11:17;51915.06;;;-142.34;27.13
12951;BME280;6540;50.858;7.232;2022-12-18T03:14:03;51898.94;;;-142.34;27.49
12951;BME280;6540;50.858;7.232;2022-12-18T03:16:33;51898.94;;;-142.34;28.18
12951;BME280;6540;50.858;7.232;2022-12-18T03:19:10;51902.97;;;-142.34;28.59
12951;BME280;6540;50.858;7.232;2022-12-18T03:21:42;51929.19;;;-142.34;28.78
12951;BME280;6540;50.858;7.232;2022-12-18T03:24:09;51919.09;;;-142.34;27.87
12951;BME280;6540;50.858;7.232;2022-12-18T03:26:36;51935.25;;;-142.34;26.88
12951;BME280;6540;50.858;7.232;2022-12-18T03:29:09;51898.94;;;-142.34;27.51
12951;BME280;6540;50.858;7.232;2022-12-18T03:31:39;51921.13;;;-142.34;28.75
12951;BME280;6540;50.858;7.232;2022-12-18T03:34:11;51923.13;;;-142.34;27.72
12951;BME280;6540;50.858;7.232;2022-12-18T03:36:38;51935.25;;;-142.34;27.74
12951;BME280;6540;50.858;7.232;2022-12-18T03:39:04;51894.88;;;-142.34;27.22
12951;BME280;6540;50.858;7.232;2022-12-18T03:41:54;51919.09;;;-142.34;26.37
12951;BME280;6540;50.858;7.232;2022-12-18T03:52:51;51935.25;;;-142.34;26.39
12951;BME280;6540;50.858;7.232;2022-12-18T03:55:19;51957.44;;;-142.34;26.03
12951;BME280;6540;50.858;7.232;2022-12-18T03:57:47;51923.13;;;-142.34;26.59
12951;BME280;6540;50.858;7.232;2022-12-18T04:00:15;51927.16;;;-142.34;26.27
12951;BME280;6540;50.858;7.232;2022-12-18T04:02:49;51951.38;;;-142.34;25.74
12951;BME280;6540;50.858;7.232;2022-12-18T04:05:16;51949.34;;;-142.34;25.78
12951;BME280;6540;50.858;7.232;2022-12-18T04:07:43;51967.50;;;-142.34;26.13
12951;BME280;6540;50.858;7.232;2022-12-18T04:10:10;51927.16;;;-142.34;26.80
12951;BME280;6540;50.858;7.232;2022-12-18T04:12:37;51951.38;;;-142.34;26.56
12951;BME280;6540;50.858;7.232;2022-12-18T04:15:02;51935.25;;;-142.34;27.07
12951;BME280;6540;50.858;7.232;2022-12-18T04:17:28;51959.44;;;-142.34;26.48
12951;BME280;6540;50.858;7.232;2022-12-18T04:19:53;51935.25;;;-142.34;27.34
12951;BME280;6540;50.858;7.232;2022-12-18T04:22:18;51941.28;;;-142.34;27.75
12951;BME280;6540;50.858;7.232;2022-12-18T04:24:44;51907.00;;;-142.34;27.45
12951;BME280;6540;50.858;7.232;2022-12-18T04:27:09;51957.44;;;-142.34;27.23
12951;BME280;6540;50.858;7.232;2022-12-18T04:29:35;51949.34;;;-142.34;26.80
12951;BME280;6540;50.858;7.232;2022-12-18T04:32:00;51939.28;;;-142.34;26.24
12951;BME280;6540;50.858;7.232;2022-12-18T04:34:25;51911.03;;;-142.34;26.58
12951;BME280;6540;50.858;7.232;2022-12-18T04:36:51;51971.53;;;-142.34;27.07
12951;BME280;6540;50.858;7.232;2022-12-18T04:39:17;51927.16;;;-142.34;26.46
12951;BME280;6540;50.858;7.232;2022-12-18T04:41:43;51927.16;;;-142.34;26.85
12951;BME280;6540;50.858;7.232;2022-12-18T04:44:08;51947.34;;;-142.34;27.14
12951;BME280;6540;50.858;7.232;2022-12-18T04:46:34;51947.34;;;-142.34;27.10
12951;BME280;6540;50.858;7.232;2022-12-18T04:48:59;51935.25;;;-142.34;26.32
12951;BME280;6540;50.858;7.232;2022-12-18T04:51:24;51911.03;;;-142.34;26.41
12951;BME280;6540;50.858;7.232;2022-12-18T04:53:50;51921.13;;;-142.34;27.05
12951;BME280;6540;50.858;7.232;2022-12-18T04:56:15;51925.16;;;-142.34;26.73
12951;BME280;6540;50.858;7.232;2022-12-18T04:58:43;51900.94;;;-142.34;26.17
12951;BME280;6540;50.858;7.232;2022-12-18T05:01:09;51947.34;;;-142.34;26.25
12951;BME280;6540;50.858;7.232;2022-12-18T05:03:36;51955.41;;;-142.34;27.02
12951;BME280;6540;50.858;7.232;2022-12-18T05:06:01;51927.16;;;-142.34;27.86
12951;BME280;6540;50.858;7.232;2022-12-18T05:08:27;51892.88;;;-142.34;27.17
12951;BME280;6540;50.858;7.232;2022-12-18T05:11:03;51915.06;;;-142.34;26.81
12951;BME280;6540;50.858;7.232;2022-12-18T05:13:29;51919.09;;;-142.34;26.74
12951;BME280;6540;50.858;7.232;2022-12-18T05:15:55;51886.81;;;-142.34;26.70
12951;BME280;6540;50.858;7.232;2022-12-18T05:18:22;51929.19;;;-142.34;27.77
12951;BME280;6540;50.858;7.232;2022-12-18T05:20:47;51931.19;;;-142.34;27.39
12951;BME280;6540;50.858;7.232;2022-12-18T05:23:13;51890.84;;;-142.34;27.82
12951;BME280;6540;50.858;7.232;2022-12-18T05:25:39;51939.28;;;-142.34;27.58
12951;BME280;6540;50.858;7.232;2022-12-18T05:28:04;51951.38;;;-142.34;26.89
12951;BME280;6540;50.858;7.232;2022-12-18T05:30:29;51929.19;;;-142.34;27.19
12951;BME280;6540;50.858;7.232;2022-12-18T05:32:55;51898.94;;;-142.34;26.73
12951;BME280;6540;50.858;7.232;2022-12-18T05:35:20;51913.03;;;-142.34;26.92
12951;BME280;6540;50.858;7.232;2022-12-18T05:37:46;51935.25;;;-142.34;27.70
12951;BME280;6540;50.858;7.232;2022-12-18T05:40:11;51902.97;;;-142.34;28.52
12951;BME280;6540;50.858;7.232;2022-12-18T05:42:37;51866.66;;;-142.34;27.15
12951;BME280;6540;50.858;7.232;2022-12-18T05:45:04;51911.03;;;-142.34;26.49
12951;BME280;6540;50.858;7.232;2022-12-18T05:47:30;51935.25;;;-142.34;27.58
12951;BME280;6540;50.858;7.232;2022-12-18T05:49:55;51913.03;;;-142.34;28.19
12951;BME280;6540;50.858;7.232;2022-12-18T05:52:21;51886.81;;;-142.34;26.81
12951;BME280;6540;50.858;7.232;2022-12-18T05:54:46;51898.94;;;-142.34;27.10
12951;BME280;6540;50.858;7.232;2022-12-18T05:57:11;51937.25;;;-142.34;27.81
12951;BME280;6540;50.858;7.232;2022-12-18T05:59:37;51931.19;;;-142.34;27.56
12951;BME280;6540;50.858;7.232;2022-12-18T06:02:02;51939.28;;;-142.34;27.51
12951;BME280;6540;50.858;7.232;2022-12-18T06:04:27;51923.13;;;-142.34;27.81
12951;BME280;6540;50.858;7.232;2022-12-18T06:06:54;51874.72;;;-142.34;28.24
12951;BME280;6540;50.858;7.232;2022-12-18T06:09:19;51907.00;;;-142.34;27.82
12951;BME280;6540;50.858;7.232;2022-12-18T06:11:44;51882.78;;;-142.34;26.56
12951;BME280;6540;50.858;7.232;2022-12-18T06:14:10;51955.41;;;-142.34;26.56
12951;BME280;6540;50.858;7.232;2022-12-18T06:16:35;51939.28;;;-142.34;26.10
12951;BME280;6540;50.858;7.232;2022-12-18T06:19:02;51923.13;;;-142.34;25.58
12951;BME280;6540;50.858;7.232;2022-12-18T06:21:29;51919.09;;;-142.34;25.78
12951;BME280;6540;50.858;7.232;2022-12-18T06:23:55;51947.34;;;-142.34;25.82
12951;BME280;6540;50.858;7.232;2022-12-18T06:26:21;51947.34;;;-142.34;27.17
12951;BME280;6540;50.858;7.232;2022-12-18T06:28:46;51902.97;;;-142.34;27.12
12951;BME280;6540;50.858;7.232;2022-12-18T06:31:12;51931.19;;;-142.34;26.09
12951;BME280;6540;50.858;7.232;2022-12-18T06:33:38;51919.09;;;-142.34;26.78
12951;BME280;6540;50.858;7.232;2022-12-18T06:36:11;51907.00;;;-142.34;27.00
12951;BME280;6540;50.858;7.232;2022-12-18T06:38:39;51919.09;;;-142.34;26.62
12951;BME280;6540;50.858;7.232;2022-12-18T06:41:18;51923.13;;;-142.34;25.89
12951;BME280;6540;50.858;7.232;2022-12-18T06:43:44;51945.31;;;-142.34;25.75
12951;BME280;6540;50.858;7.232;2022-12-18T06:46:10;51955.41;;;-142.34;25.43
12951;BME280;6540;50.858;7.232;2022-12-18T06:48:36;51947.34;;;-142.34;25.66
12951;BME280;6540;50.858;7.232;2022-12-18T06:51:02;51953.41;;;-142.34;27.27
12951;BME280;6540;50.858;7.232;2022-12-18T06:53:28;51923.13;;;-142.34;27.17
12951;BME280;6540;50.858;7.232;2022-12-18T06:56:03;51909.00;;;-142.34;26.01
12951;BME280;6540;50.858;7.232;2022-12-18T06:58:29;51947.34;;;-142.34;26.19
12951;BME280;6540;50.858;7.232;2022-12-18T07:01:00;51943.31;;;-142.34;27.17
12951;BME280;6540;50.858;7.232;2022-12-18T07:03:25;51911.03;;;-142.34;27.00
12951;BME280;6540;50.858;7.232;2022-12-18T07:05:51;51959.44;;;-142.34;26.68
12951;BME280;6540;50.858;7.232;2022-12-18T07:08:17;51929.19;;;-142.34;26.54
12951;BME280;6540;50.858;7.232;2022-12-18T07:10:43;51911.03;;;-142.34;26.07
12951;BME280;6540;50.858;7.232;2022-12-18T07:13:08;51937.25;;;-142.34;26.24
12951;BME280;6540;50.858;7.232;2022-12-18T07:15:33;51939.28;;;-142.34;26.42
12951;BME280;6540;50.858;7.232;2022-12-18T07:17:59;51951.38;;;-142.34;26.88
12951;BME280;6540;50.858;7.232;2022-12-18T07:20:24;51921.13;;;-142.34;25.54
12951;BME280;6540;50.858;7.232;2022-12-18T07:22:49;51963.47;;;-142.34;26.10
12951;BME280;6540;50.858;7.232;2022-12-18T07:25:15;51931.19;;;-142.34;25.94
12951;BME280;6540;50.858;7.232;2022-12-18T07:27:40;51971.53;;;-142.34;25.58
12951;BME280;6540;50.858;7.232;2022-12-18T07:30:06;51898.94;;;-142.34;25.63
12951;BME280;6540;50.858;7.232;2022-12-18T07:32:31;51935.25;;;-142.34;25.96
12951;BME280;6540;50.858;7.232;2022-12-18T07:34:57;51951.38;;;-142.34;26.00
12951;BME280;6540;50.858;7.232;2022-12-18T07:37:22;51909.00;;;-142.34;25.75
12951;BME280;6540;50.858;7.232;2022-12-18T07:39:48;51913.03;;;-142.34;25.63
12951;BME280;6540;50.858;7.232;2022-12-18T07:42:13;51927.16;;;-142.34;26.21
12951;BME280;6540;50.858;7.232;2022-12-18T07:45:00;51951.38;;;-142.34;26.67
12951;BME280;6540;50.858;7.232;2022-12-18T07:47:27;51919.09;;;-142.34;26.63
12951;BME280;6540;50.858;7.232;2022-12-18T07:49:53;51907.00;;;-142.34;26.41
12951;BME280;6540;50.858;7.232;2022-12-18T07:52:18;51923.13;;;-142.34;27.30
12951;BME280;6540;50.858;7.232;2022-12-18T07:54:44;51965.50;;;-142.34;27.53
12951;BME280;6540;50.858;7.232;2022-12-18T07:57:10;51931.19;;;-142.34;26.74
12951;BME280;6540;50.858;7.232;2022-12-18T07:59:35;51917.06;;;-142.34;25.85
12951;BME280;6540;50.858;7.232;2022-12-18T08:02:00;51939.28;;;-142.34;25.86
12951;BME280;6540;50.858;7.232;2022-12-18T08:04:26;51931.19;;;-142.34;26.23
12951;BME280;6540;50.858;7.232;2022-12-18T08:06:51;51949.34;;;-142.34;26.54
12951;BME280;6540;50.858;7.232;2022-12-18T08:09:17;51955.41;;;-142.34;27.49
12951;BME280;6540;50.858;7.232;2022-12-18T08:11:42;51935.25;;;-142.34;27.63
12951;BME280;6540;50.858;7.232;2022-12-18T08:14:08;51917.06;;;-142.34;27.42
12951;BME280;6540;50.858;7.232;2022-12-18T08:16:34;51935.25;;;-142.34;27.24
12951;BME280;6540;50.858;7.232;2022-12-18T08:18:59;51915.06;;;-142.34;27.76
12951;BME280;6540;50.858;7.232;2022-12-18T08:21:27;51902.97;;;-142.34;27.25
12951;BME280;6540;50.858;7.232;2022-12-18T08:23:55;51902.97;;;-142.34;27.12
12951;BME280;6540;50.858;7.232;2022-12-18T08:26:21;51939.28;;;-142.34;27.07
12951;BME280;6540;50.858;7.232;2022-12-18T08:28:47;51925.16;;;-142.34;27.22
12951;BME280;6540;50.858;7.232;2022-12-18T08:31:12;51963.47;;;-142.34;26.73
12951;BME280;6540;50.858;7.232;2022-12-18T08:33:38;51927.16;;;-142.34;27.54
12951;BME280;6540;50.858;7.232;2022-12-18T08:36:04;51943.31;;;-142.34;27.11
12951;BME280;6540;50.858;7.232;2022-12-18T08:38:31;51925.16;;;-142.34;26.68
12951;BME280;6540;50.858;7.232;2022-12-18T08:41:04;51927.16;;;-142.34;26.02
12951;BME280;6540;50.858;7.232;2022-12-18T08:43:30;51975.59;;;-142.34;28.62
12951;BME280;6540;50.858;7.232;2022-12-18T08:46:16;51963.47;;;-142.34;27.17
12951;BME280;6540;50.858;7.232;2022-12-18T08:48:41;51947.34;;;-142.34;26.88
12951;BME280;6540;50.858;7.232;2022-12-18T08:51:07;51907.00;;;-142.34;26.68
12951;BME280;6540;50.858;7.232;2022-12-18T08:53:35;51939.28;;;-142.34;26.14
12951;BME280;6540;50.858;7.232;2022-12-18T08:56:00;51951.38;;;-142.34;26.22
12951;BME280;6540;50.858;7.232;2022-12-18T08:58:25;51955.41;;;-142.34;26.78
12951;BME280;6540;50.858;7.232;2022-12-18T09:00:51;51963.47;;;-142.34;26.89
12951;BME280;6540;50.858;7.232;2022-12-18T09:03:17;51939.28;;;-142.34;28.37
12951;BME280;6540;50.858;7.232;2022-12-18T09:05:45;51935.25;;;-142.34;27.41
12951;BME280;6540;50.858;7.232;2022-12-18T09:08:11;51947.34;;;-142.34;26.66
12951;BME280;6540;50.858;7.232;2022-12-18T09:10:44;51955.41;;;-142.34;27.64
12951;BME280;6540;50.858;7.232;2022-12-18T09:13:11;51925.16;;;-142.34;28.52
12951;BME280;6540;50.858;7.232;2022-12-18T09:15:55;51971.53;;;-142.34;28.34
12951;BME280;6540;50.858;7.232;2022-12-18T09:18:22;51919.09;;;-142.34;27.42
12951;BME280;6540;50.858;7.232;2022-12-18T09:20:49;51937.25;;;-142.34;26.73
12951;BME280;6540;50.858;7.232;2022-12-18T09:23:17;51967.50;;;-142.34;26.52
12951;BME280;6540;50.858;7.232;2022-12-18T09:25:42;51947.34;;;-142.34;27.05
12951;BME280;6540;50.858;7.232;2022-12-18T09:28:12;51971.53;;;-142.34;26.88
12951;BME280;6540;50.858;7.232;2022-12-18T09:30:40;51951.38;;;-142.34;27.30
12951;BME280;6540;50.858;7.232;2022-12-18T09:33:06;51979.63;;;-142.34;26.75
12951;BME280;6540;50.858;7.232;2022-12-18T09:35:31;51965.50;;;-142.34;27.91
12951;BME280;6540;50.858;7.232;2022-12-18T09:37:56;51983.66;;;-142.34;27.30
12951;BME280;6540;50.858;7.232;2022-12-18T09:40:25;51975.59;;;-142.34;26.74
12951;BME280;6540;50.858;7.232;2022-12-18T09:43:03;51999.78;;;-142.34;26.91
12951;BME280;6540;50.858;7.232;2022-12-18T09:45:38;51983.66;;;-142.34;26.95
12951;BME280;6540;50.858;7.232;2022-12-18T09:48:28;52011.91;;;-142.34;27.91
12951;BME280;6540;50.858;7.232;2022-12-18T09:51:00;51987.69;;;-142.34;27.12
12951;BME280;6540;50.858;7.232;2022-12-18T09:53:30;51985.66;;;-142.34;26.68
12951;BME280;6540;50.858;7.232;2022-12-18T09:55:57;52019.97;;;-142.34;27.10
12951;BME280;6540;50.858;7.232;2022-12-18T09:58:41;51999.78;;;-142.34;27.38
12951;BME280;6540;50.858;7.232;2022-12-18T10:01:14;52030.06;;;-142.34;26.85
12951;BME280;6540;50.858;7.232;2022-12-18T10:03:41;52011.91;;;-142.34;26.94
12951;BME280;6540;50.858;7.232;2022-12-18T10:06:11;52021.97;;;-142.34;26.58
12951;BME280;6540;50.858;7.232;2022-12-18T10:08:53;51983.66;;;-142.34;27.25
12951;BME280;6540;50.858;7.232;2022-12-18T10:27:26;52032.06;;;-142.34;26.97
12951;BME280;6540;50.858;7.232;2022-12-18T10:29:52;52028.03;;;-142.34;26.71
12951;BME280;6540;50.858;7.232;2022-12-18T10:32:27;52052.25;;;-142.34;26.49
12951;BME280;6540;50.858;7.232;2022-12-18T10:34:56;52015.94;;;-142.34;26.34
12951;BME280;6540;50.858;7.232;2022-12-18T10:37:26;52028.03;;;-142.34;26.67
12951;BME280;6540;50.858;7.232;2022-12-18T10:40:15;51997.78;;;-142.34;27.34
12951;BME280;6540;50.858;7.232;2022-12-18T10:42:41;52024.00;;;-142.34;27.07
12951;BME280;6540;50.858;7.232;2022-12-18T10:45:13;52036.09;;;-142.34;26.39
12951;BME280;6540;50.858;7.232;2022-12-18T10:47:46;52007.84;;;-142.34;27.24
12951;BME280;6540;50.858;7.232;2022-12-18T10:50:39;52019.97;;;-142.34;26.37
12951;BME280;6540;50.858;7.232;2022-12-18T10:53:05;52032.06;;;-142.34;26.11
12951;BME280;6540;50.858;7.232;2022-12-18T10:55:35;52040.13;;;-142.34;26.12
12951;BME280;6540;50.858;7.232;2022-12-18T11:03:35;51989.69;;;-142.34;26.90
12951;BME280;6540;50.858;7.232;2022-12-18T11:06:06;52024.00;;;-142.34;27.02
12951;BME280;6540;50.858;7.232;2022-12-18T11:08:32;52019.97;;;-142.34;27.61
12951;BME280;6540;50.858;7.232;2022-12-18T11:10:58;51993.75;;;-142.34;28.24
12951;BME280;6540;50.858;7.232;2022-12-18T11:13:25;52015.94;;;-142.34;27.47
12951;BME280;6540;50.858;7.232;2022-12-18T11:15:51;52015.94;;;-142.34;26.97
12951;BME280;6540;50.858;7.232;2022-12-18T11:18:32;52024.00;;;-142.34;27.28
12951;BME280;6540;50.858;7.232;2022-12-18T11:21:07;51983.66;;;-142.34;26.78
12951;BME280;6540;50.858;7.232;2022-12-18T11:23:34;52028.03;;;-142.34;26.78
12951;BME280;6540;50.858;7.232;2022-12-18T11:26:01;52015.94;;;-142.34;27.27
12951;BME280;6540;50.858;7.232;2022-12-18T11:34:10;52021.97;;;-142.34;27.85
12951;BME280;6540;50.858;7.232;2022-12-18T11:36:42;51955.41;;;-142.34;28.61
12951;BME280;6540;50.858;7.232;2022-12-18T11:41:53;51991.72;;;-142.34;28.31
12951;BME280;6540;50.858;7.232;2022-12-18T11:44:50;52048.22;;;-142.34;28.16
12951;BME280;6540;50.858;7.232;2022-12-18T11:47:28;52028.03;;;-142.34;27.60
12951;BME280;6540;50.858;7.232;2022-12-18T11:50:00;52015.94;;;-142.34;27.42
12951;BME280;6540;50.858;7.232;2022-12-18T11:52:40;51989.69;;;-142.34;26.64
12951;BME280;6540;50.858;7.232;2022-12-18T14:02:35;51959.44;;;-142.34;38.11
12951;BME280;6540;50.858;7.232;2022-12-18T14:05:00;51979.63;;;-142.34;35.93
12951;BME280;6540;50.858;7.232;2022-12-18T14:07:28;51991.72;;;-142.34;34.38
12951;BME280;6540;50.858;7.232;2022-12-18T14:09:58;51975.59;;;-142.34;35.25
12951;BME280;6540;50.858;7.232;2022-12-18T14:12:28;51997.78;;;-142.34;33.11
12951;BME280;6540;50.858;7.232;2022-12-18T14:17:44;51975.59;;;-142.34;32.98
12951;BME280;6540;50.858;7.232;2022-12-18T14:20:14;51985.66;;;-142.34;33.22
12951;BME280;6540;50.858;7.232;2022-12-18T14:22:43;52007.84;;;-142.34;34.20
12951;BME280;6540;50.858;7.232;2022-12-18T14:25:14;51933.22;;;-142.34;32.79
12951;BME280;6540;50.858;7.232;2022-12-18T14:33:10;51963.47;;;-142.34;31.81
12951;BME280;6540;50.858;7.232;2022-12-18T14:35:38;51951.38;;;-142.34;31.08
12951;BME280;6540;50.858;7.232;2022-12-18T14:40:53;51949.34;;;-142.34;32.28
12951;BME280;6540;50.858;7.232;2022-12-18T14:43:22;51943.31;;;-142.34;32.47
12951;BME280;6540;50.858;7.232;2022-12-18T14:45:48;51925.16;;;-142.34;31.21
12951;BME280;6540;50.858;7.232;2022-12-18T14:48:37;51955.41;;;-142.34;32.32
12951;BME280;6540;50.858;7.232;2022-12-18T14:51:22;51923.13;;;-142.34;32.24
12951;BME280;6540;50.858;7.232;2022-12-18T14:53:55;51911.03;;;-142.34;33.05
12951;BME280;6540;50.858;7.232;2022-12-18T14:56:26;51939.28;;;-142.34;32.33
12951;BME280;6540;50.858;7.232;2022-12-18T14:59:00;51933.22;;;-142.34;32.40
12951;BME280;6540;50.858;7.232;2022-12-18T15:04:01;51943.31;;;-142.34;31.57
12951;BME280;6540;50.858;7.232;2022-12-18T15:06:38;51953.41;;;-142.34;30.38
12951;BME280;6540;50.858;7.232;2022-12-18T15:09:23;51961.47;;;-142.34;29.85
12951;BME280;6540;50.858;7.232;2022-12-18T15:11:49;51995.75;;;-142.34;30.48
12951;BME280;6540;50.858;7.232;2022-12-18T15:14:30;51965.50;;;-142.34;30.71
12951;BME280;6540;50.858;7.232;2022-12-18T15:16:58;51979.63;;;-142.34;32.21
12951;BME280;6540;50.858;7.232;2022-12-18T15:19:44;51953.41;;;-142.34;30.26
12951;BME280;6540;50.858;7.232;2022-12-18T15:22:49;51983.66;;;-142.34;30.36
12951;BME280;6540;50.858;7.232;2022-12-18T15:25:31;52009.88;;;-142.34;30.07
12951;BME280;6540;50.858;7.232;2022-12-18T15:27:58;51999.78;;;-142.34;31.02
12951;BME280;6540;50.858;7.232;2022-12-18T15:30:25;51955.41;;;-142.34;30.72
12951;BME280;6540;50.858;7.232;2022-12-18T15:32:51;51939.28;;;-142.34;29.94
12951;BME280;6540;50.858;7.232;2022-12-18T15:35:24;51987.69;;;-142.34;30.33
12951;BME280;6540;50.858;7.232;2022-12-18T15:37:51;51963.47;;;-142.34;31.74
12951;BME280;6540;50.858;7.232;2022-12-18T15:40:20;51959.44;;;-142.34;30.29
12951;BME280;6540;50.858;7.232;2022-12-18T15:42:46;51947.34;;;-142.34;30.56
12951;BME280;6540;50.858;7.232;2022-12-18T15:45:31;51947.34;;;-142.34;29.73
12951;BME280;6540;50.858;7.232;2022-12-18T15:47:56;51941.28;;;-142.34;30.97
12951;BME280;6540;50.858;7.232;2022-12-18T15:50:22;51959.44;;;-142.34;30.31
12951;BME280;6540;50.858;7.232;2022-12-18T15:52:49;51979.63;;;-142.34;30.53
12951;BME280;6540;50.858;7.232;2022-12-18T15:55:22;51965.50;;;-142.34;30.55
12951;BME280;6540;50.858;7.232;2022-12-18T15:58:08;51963.47;;;-142.34;32.01
12951;BME280;6540;50.858;7.232;2022-12-18T16:00:34;51959.44;;;-142.34;32.57
12951;BME280;6540;50.858;7.232;2022-12-18T16:03:00;51959.44;;;-142.34;32.44
12951;BME280;6540;50.858;7.232;2022-12-18T16:05:28;51983.66;;;-142.34;32.96
12951;BME280;6540;50.858;7.232;2022-12-18T16:07:54;51983.66;;;-142.34;31.41
12951;BME280;6540;50.858;7.232;2022-12-18T16:10:20;51957.44;;;-142.34;31.50
12951;BME280;6540;50.858;7.232;2022-12-18T16:12:46;51975.59;;;-142.34;31.72
12951;BME280;6540;50.858;7.232;2022-12-18T16:15:15;51975.59;;;-142.34;30.87
12951;BME280;6540;50.858;7.232;2022-12-18T16:17:42;51981.63;;;-142.34;32.08
12951;BME280;6540;50.858;7.232;2022-12-18T16:20:19;51935.25;;;-142.34;32.75
12951;BME280;6540;50.858;7.232;2022-12-18T16:22:47;51947.34;;;-142.34;30.50
12951;BME280;6540;50.858;7.232;2022-12-18T16:25:24;51939.28;;;-142.34;32.22